Share

Arlington, WY

KWYMEDIC2 Elev 6646 ft | 41.89 °N, 106.19 °W | Change Station

Current weather conditions updated 8 minutes ago

Clear
Clear
31.8 °F
Feels Like 25 °F
N
7.0
Wind Variable Wind from East
Gusts 9.0 mph
Sunrise 6:14 AM
Sunset 7:51 PM
Moon Waning Gibbous

Today is forecast to be Cooler than yesterday.

Pressure 30.14 in
Visibility 10.0 miles
Clouds Clear
Windchill 25 °F
Dew Point 26 °F
Humidity 79%
Rainfall 0.00 in
Snow Depth Not available.
UV 0 out of 16
Pollen 10.60 out of 12
Air Quality Not available.
Flu Activity Sporadic
METAR KLAR 211153Z AUTO 16008KT 10SM CLR M02/M04 A3027 RMK AO2 SLP205 T10171044 10039 21017 50003

More Conditions Fewer Conditions

Pressure 30.14 in
Visibility 10.0 miles
Clouds Clear
Windchill 25 °F
Dew Point 26 °F
Humidity 79%
Rainfall 0.00 in
Snow Depth Not available.
UV 0 out of 16
Pollen 10.60 out of 12
Air Quality Not available.
Flu Activity Sporadic
METAR KLAR 211153Z AUTO 16008KT 10SM CLR M02/M04 A3027 RMK AO2 SLP205 T10171044 10039 21017 50003

More Conditions Fewer Conditions

10-Day Weather Forecast

Almanac

Astronomy

Apr. 21, 2014 Rise Set
Actual Time 6:14 AM MDT 7:51 PM MDT
Civil Twilight 5:44 AM MDT 8:20 PM MDT
Nautical Twilight 5:09 AM MDT 8:56 PM MDT
Astronomical Twilight 4:31 AM MDT 9:34 PM MDT
Moon 1:24 AM MDT 11:42 AM MDT
Length of Visible Light 14h 35m
Length of Day
13h 37m
Tomorrow will be 2m 36s longer.
Waning Gibbous, 59% of the Moon is Illuminated
Today
Waning Gibbous
Apr 22
Last Quarter
Apr 29
New
May 6
First Quarter
May 14
Full

Today's Extremes

State Highs State Lows

Community

  • Snowy Robin
    Snowy Robin
  • Sun Pillar and Geese
    Sun Pillar and Geese
  • Showers on the Way
    Showers on the Way
  • Easter Morning Fog
    Easter Morning Fog
  • Easter Dance
    Easter Dance

WunderPhotos

Upload Photos

1,703,603 photos uploaded!

Nearby

Snow Depth

Station Depth Elevation
Sand Lake 94 in 10050 ft
Brooklyn Lake 80 in 10220 ft
Windy Peak 23 in 7900 ft
North French Creek 97 in 10130 ft
Cinnabar Park 68 in 9690 ft

Coastal Water Temperatures

Place Temperature
No Stations Reporting

Earthquake Activity

City Distance Mag. Time & Date
No recent earthquake activity has been reported nearby.
Minimum magnitude displayed is 2.5.

Nearby Weather Stations

Station Location Temp. Windchill Dew Point Humidity Wind Precip. Elev Updated Type
MesoWest WILCX1 , Rock River, WY 40 °F 40 °F - - North  at  - 0.00 in / hr 7004 ft 5:00 AM MDT MADIS
MesoWest MEDIC1 , Medicine Bow, WY 35 °F 35 °F - - North  at  - 0.00 in / hr 6650 ft 5:00 AM MDT MADIS
Medicine Bow, WY 31.8 °F 25 °F 26 °F 79% East  at  7.0 mph 0.00 in / hr 6646 ft 6:14 AM MDT Normal

Show More Stations Show Fewer Stations

What do you think?

We're not finished. Please let us know what you like, what you don't like, and what you are still missing.